Kealia, HI (96751)

12:15 AM HST on July 23, 2016 (GMT -1000)
Queen's Acres | | Change Station
Active Advisory: High Surf Advisory

Elev 348 ft 22.07 °N, 159.36 °W | Updated 10 seconds ago

Mostly Cloudy
Mostly Cloudy
74.1 °F
Feels Like 74 °F
N
2.7
Wind Variable Wind from NE
Gusts 4.9 mph

Today
High -- | Low -- °F
--% Chance of Precip.
Yesterday
High -- | Low -- °F
Precip. -- in
Pressure 30.01 in
Visibility 10.0 miles
Clouds Scattered Clouds 2100 ft
Scattered Clouds 2800 ft
Mostly Cloudy 3700 ft
Heat Index 74 °F
Dew Point 69 °F
Humidity 84%
Rainfall 0.00 in
Snow Depth Not available.
6:06 AM 7:21 PM
Waning Gibbous, 86% visible
METAR PHLI 230953Z 04018KT 10SM SCT021 SCT028 BKN037 25/21 A3002 RMK AO2 SLP163 T02500206 402940233 $
Pressure 30.01 in
Visibility 10.0 miles
Clouds Scattered Clouds 2100 ft
Scattered Clouds 2800 ft
Mostly Cloudy 3700 ft
Heat Index 74 °F
Dew Point 69 °F
Humidity 84%
Rainfall 0.00 in
Snow Depth Not available.
6:06 AM 7:21 PM
Waning Gibbous, 86% visible
METAR PHLI 230953Z 04018KT 10SM SCT021 SCT028 BKN037 25/21 A3002 RMK AO2 SLP163 T02500206 402940233 $

10-Day Weather Forecast

Almanac

Astronomy

Jul. 23, 2016 Rise Set
Actual Time
Civil Twilight
Nautical Twilight
Astronomical Twilight
Moon
Length of Visible Light
Length of Day
Tomorrow will be .
, % of the Moon is Illuminated

Today's Extremes

State Highs State Lows

Community

WunderPhotos

Upload Photos

1,926,789 photos uploaded!

WunderBlog® & News

Nearby

Air Quality

  Air Quality AQ Index Pollutant
Not available.

Snow Depth

Station Depth Elevation

Earthquake Activity

City Distance Mag. Time & Date
Minimum magnitude displayed is 2.5.

Coastal Water Temperatures

Place Temperature

Stations

Nearby Weather Stations

Station Location Temp. Windchill Dew Point Humidity Wind Precip. Elev Updated Type
                   

Watches & Warnings

High Surf Advisory
Issued: 6:14 PM HST Jul. 22, 2016 – National Weather Service

... High surf advisory remains in effect until 6 am HST Sunday...

* surf... 10 to 14 feet along east facing shores.

* Timing... through early Sunday.

* Impacts... moderate... expect strong breaking waves... shore
break... and strong longshore and rip currents making swimming
difficult and dangerous.

Precautionary/preparedness actions...

Beachgoers... swimmers... and surfers should heed all advice given
by ocean safety officials and exercise caution. Know your limits
and seek ocean recreation areas best suited for your abilities.



Birchard